createdAt,value
2019-05-11T00:02:23.355Z,26.70
2019-05-11T00:04:53.969Z,26.70
2019-05-11T00:07:24.264Z,26.80
2019-05-11T00:09:58.232Z,26.80
2019-05-11T00:12:26.355Z,26.90
2019-05-11T00:14:56.847Z,26.90
2019-05-11T00:17:27.022Z,26.90
2019-05-11T00:19:57.053Z,27.00
2019-05-11T00:22:27.577Z,27.00
2019-05-11T00:24:57.626Z,27.10
2019-05-11T00:27:27.989Z,27.10
2019-05-11T00:29:58.111Z,27.20
2019-05-11T00:32:28.327Z,27.20
2019-05-11T00:34:58.697Z,27.30
2019-05-11T00:37:28.790Z,27.30
2019-05-11T00:40:13.250Z,27.40
2019-05-11T00:42:30.814Z,27.50
2019-05-11T00:45:33.886Z,27.50
2019-05-11T00:48:04.349Z,27.60
2019-05-11T00:50:39.284Z,27.70
2019-05-11T00:53:52.840Z,27.70
2019-05-11T00:56:23.241Z,27.80
2019-05-11T00:58:53.428Z,27.70
2019-05-11T01:01:24.375Z,27.80
2019-05-11T01:03:54.925Z,27.80
2019-05-11T01:06:25.167Z,27.80
2019-05-11T01:08:55.490Z,27.90
2019-05-11T01:11:25.801Z,28.00
2019-05-11T01:13:56.203Z,28.00
2019-05-11T01:16:27.035Z,28.00
2019-05-11T01:18:59.022Z,28.10
2019-05-11T01:21:29.758Z,28.10
2019-05-11T01:24:00.049Z,28.20
2019-05-11T01:26:30.399Z,28.20
2019-05-11T01:29:00.865Z,28.20
2019-05-11T01:31:31.223Z,28.30
2019-05-11T01:34:01.530Z,28.30
2019-05-11T01:36:31.815Z,28.40
2019-05-11T01:39:02.168Z,28.40
2019-05-11T01:41:33.564Z,28.40
2019-05-11T01:44:03.984Z,28.50
2019-05-11T01:46:34.243Z,28.40
2019-05-11T01:49:04.531Z,28.40
2019-05-11T01:51:34.934Z,28.40
2019-05-11T01:54:05.197Z,28.40
2019-05-11T01:56:35.423Z,28.40
2019-05-11T01:59:05.924Z,28.50
2019-05-11T02:01:36.202Z,28.50
2019-05-11T02:04:06.526Z,28.60
2019-05-11T02:06:37.043Z,28.60
2019-05-11T02:09:08.628Z,28.60
2019-05-11T02:11:38.827Z,28.60
2019-05-11T02:14:09.215Z,28.70
2019-05-11T02:16:39.639Z,28.70
2019-05-11T02:19:09.977Z,28.70
2019-05-11T02:21:40.506Z,28.80
2019-05-11T02:24:10.945Z,28.90
2019-05-11T02:26:41.287Z,28.80
2019-05-11T02:29:11.548Z,28.90
2019-05-11T02:31:43.234Z,28.90
2019-05-11T02:34:14.816Z,28.90
2019-05-11T02:36:46.455Z,29.00
2019-05-11T02:39:17.509Z,29.00
2019-05-11T02:41:49.260Z,29.00
2019-05-11T02:44:20.603Z,29.10
2019-05-11T02:46:52.563Z,29.20
2019-05-11T02:49:27.792Z,29.30
2019-05-11T02:51:57.113Z,29.40
2019-05-11T02:54:29.617Z,29.30
2019-05-11T02:56:59.981Z,29.40
2019-05-11T02:59:30.220Z,29.40
2019-05-11T03:02:00.524Z,29.40
2019-05-11T03:04:31.412Z,29.40
2019-05-11T03:07:03.047Z,29.40
2019-05-11T03:09:34.014Z,29.40
2019-05-11T03:12:06.036Z,29.50
2019-05-11T03:14:37.568Z,29.50
2019-05-11T03:17:10.758Z,29.60
2019-05-11T03:19:41.074Z,29.70
2019-05-11T03:22:11.483Z,29.80
2019-05-11T03:27:10.763Z,29.80
2019-05-11T03:29:41.179Z,29.80
2019-05-11T03:32:12.227Z,29.70
2019-05-11T03:34:42.356Z,29.70
2019-05-11T03:37:12.678Z,29.80
2019-05-11T03:39:43.109Z,29.90
2019-05-11T03:44:26.827Z,30.00
2019-05-11T03:46:57.058Z,30.10
2019-05-11T03:49:27.593Z,30.10
2019-05-11T03:51:57.844Z,30.10
2019-05-11T03:56:20.097Z,30.20
2019-05-11T03:58:50.324Z,30.40
2019-05-11T04:01:20.525Z,30.50
2019-05-11T04:03:51.084Z,30.60
2019-05-11T04:06:21.335Z,30.60
2019-05-11T04:08:51.644Z,30.60
2019-05-11T04:11:21.970Z,30.70
2019-05-11T04:13:52.917Z,30.70
2019-05-11T04:16:23.503Z,30.80
2019-05-11T04:18:54.582Z,30.80
2019-05-11T04:21:25.306Z,30.90
2019-05-11T04:23:55.648Z,31.00
2019-05-11T04:26:25.949Z,31.10
2019-05-11T04:28:56.577Z,31.30
2019-05-11T04:31:27.038Z,31.40
2019-05-11T04:33:57.368Z,31.50
2019-05-11T04:36:28.707Z,31.60
2019-05-11T04:38:59.049Z,31.60
2019-05-11T04:41:29.854Z,31.60
2019-05-11T04:44:00.384Z,31.50
2019-05-11T04:46:30.702Z,31.40
2019-05-11T04:49:00.920Z,31.40
2019-05-11T04:51:31.285Z,31.40
2019-05-11T04:54:01.550Z,31.50
2019-05-11T04:56:31.817Z,31.60
2019-05-11T04:59:02.185Z,31.70
2019-05-11T05:01:32.765Z,31.80
2019-05-11T05:04:13.326Z,31.90
2019-05-11T05:06:34.797Z,31.90
2019-05-11T05:09:07.233Z,32.00
2019-05-11T05:11:38.506Z,32.10
2019-05-11T05:14:10.332Z,32.10
2019-05-11T05:16:40.657Z,32.10
2019-05-11T05:19:11.083Z,32.10
2019-05-11T05:21:42.223Z,32.10
2019-05-11T05:24:12.604Z,32.20
2019-05-11T05:26:42.946Z,32.30
2019-05-11T05:29:13.228Z,32.30
2019-05-11T05:31:43.546Z,32.50
2019-05-11T05:34:13.895Z,32.60
2019-05-11T05:36:44.159Z,32.70
2019-05-11T05:39:14.617Z,32.80
2019-05-11T05:41:56.730Z,32.90
2019-05-11T05:44:16.716Z,33.00
2019-05-11T05:46:46.921Z,32.90
2019-05-11T05:49:17.252Z,32.90
2019-05-11T05:51:47.768Z,32.80
2019-05-11T05:54:18.067Z,32.70
2019-05-11T05:56:48.526Z,32.60
2019-05-11T05:59:19.281Z,32.50
2019-05-11T06:01:49.665Z,32.50
2019-05-11T06:04:19.881Z,32.60
2019-05-11T06:06:50.344Z,32.70
2019-05-11T06:09:20.782Z,32.70
2019-05-11T06:11:51.199Z,32.60
2019-05-11T06:14:21.667Z,32.60
2019-05-11T06:16:51.883Z,32.70
2019-05-11T06:19:22.219Z,32.80
2019-05-11T06:21:52.492Z,32.90
2019-05-11T06:24:22.980Z,33.10
2019-05-11T06:26:53.043Z,33.10
2019-05-11T06:29:23.459Z,33.10
2019-05-11T06:31:53.963Z,33.20
2019-05-11T06:34:24.312Z,33.40
2019-05-11T06:36:54.815Z,33.40
2019-05-11T06:39:25.067Z,33.60
2019-05-11T06:41:55.439Z,33.60
2019-05-11T06:44:25.724Z,33.70
2019-05-11T06:46:55.968Z,33.80
2019-05-11T06:49:26.960Z,33.90
2019-05-11T06:51:57.372Z,33.90
2019-05-11T06:54:27.726Z,33.90
2019-05-11T06:56:57.996Z,34.00
2019-05-11T06:59:28.267Z,34.00
2019-05-11T07:02:54.625Z,34.00
2019-05-11T07:05:24.962Z,34.00
2019-05-11T07:07:55.181Z,34.10
2019-05-11T07:10:25.433Z,34.10
2019-05-11T07:12:57.107Z,34.10
2019-05-11T07:15:27.349Z,34.10
2019-05-11T07:17:57.596Z,34.20
2019-05-11T07:20:27.811Z,34.30
2019-05-11T07:22:58.242Z,34.30
2019-05-11T07:25:28.947Z,34.30
2019-05-11T07:27:59.215Z,34.30
2019-05-11T07:30:29.764Z,34.40
2019-05-11T07:33:01.112Z,34.40
2019-05-11T07:35:31.579Z,34.40
2019-05-11T07:38:02.088Z,34.40
2019-05-11T07:40:32.520Z,34.40
2019-05-11T07:44:43.909Z,34.30
2019-05-11T07:47:14.146Z,34.30
2019-05-11T07:49:44.340Z,34.30
2019-05-11T07:52:14.623Z,34.20
2019-05-11T07:54:51.849Z,34.20
2019-05-11T07:57:18.619Z,34.30
2019-05-11T08:00:48.975Z,34.30
2019-05-11T08:03:19.454Z,34.30
2019-05-11T08:05:49.649Z,34.30
2019-05-11T08:08:20.340Z,34.20
2019-05-11T08:10:50.602Z,34.20
2019-05-11T08:13:20.915Z,34.30
2019-05-11T08:15:51.261Z,34.30
2019-05-11T08:18:21.454Z,34.40
2019-05-11T08:20:51.754Z,34.40
2019-05-11T08:23:22.071Z,34.40
2019-05-11T08:25:54.366Z,34.40
2019-05-11T08:28:23.951Z,34.40
2019-05-11T08:30:54.365Z,34.40
2019-05-11T08:33:24.692Z,34.40
2019-05-11T08:35:55.163Z,34.40
2019-05-11T08:38:25.424Z,34.40
2019-05-11T08:40:55.732Z,34.40
2019-05-11T08:43:28.338Z,34.40
2019-05-11T08:45:57.938Z,34.50
2019-05-11T08:48:28.624Z,34.40
2019-05-11T08:50:58.993Z,34.40
2019-05-11T08:53:29.324Z,34.40
2019-05-11T08:55:59.573Z,34.40
2019-05-11T08:59:18.613Z,34.40
2019-05-11T09:01:48.631Z,34.50
2019-05-11T09:04:18.993Z,34.50
2019-05-11T09:06:49.343Z,34.50
2019-05-11T09:09:19.706Z,34.50
2019-05-11T09:11:49.911Z,34.50
2019-05-11T09:14:20.276Z,34.40
2019-05-11T09:16:50.586Z,34.40
2019-05-11T09:19:21.544Z,34.40
2019-05-11T09:21:51.959Z,34.40
2019-05-11T09:24:22.228Z,34.40
2019-05-11T09:26:52.476Z,34.30
2019-05-11T09:29:23.408Z,34.30
2019-05-11T09:31:53.739Z,34.30
2019-05-11T09:34:24.209Z,34.30
2019-05-11T09:36:54.424Z,34.30
2019-05-11T09:39:24.832Z,34.30
2019-05-11T09:41:55.126Z,34.30
2019-05-11T09:44:25.505Z,34.20
2019-05-11T09:46:59.749Z,34.20
2019-05-11T09:49:43.241Z,34.20
2019-05-11T09:51:59.153Z,34.20
2019-05-11T09:54:29.498Z,34.10
2019-05-11T09:56:59.878Z,34.10
2019-05-11T09:59:30.251Z,34.10
2019-05-11T10:02:00.477Z,34.10
2019-05-11T10:04:30.865Z,34.10
2019-05-11T10:07:01.191Z,34.10
2019-05-11T10:09:31.549Z,34.10
2019-05-11T10:12:02.013Z,34.10
2019-05-11T10:14:32.466Z,34.00
2019-05-11T10:17:02.660Z,34.00
2019-05-11T10:19:33.002Z,34.00
2019-05-11T10:22:03.375Z,33.90
2019-05-11T10:24:33.848Z,33.80
2019-05-11T10:27:04.187Z,33.80
2019-05-11T10:29:34.476Z,33.80
2019-05-11T10:32:04.809Z,33.80
2019-05-11T10:34:35.052Z,33.70
2019-05-11T10:37:05.444Z,33.60
2019-05-11T10:39:35.606Z,33.60
2019-05-11T10:42:08.517Z,33.60
2019-05-11T10:44:38.510Z,33.50
2019-05-11T10:47:09.077Z,33.40
2019-05-11T10:49:39.268Z,33.30
2019-05-11T10:52:09.859Z,33.30
2019-05-11T10:54:40.404Z,33.30
2019-05-11T10:57:10.795Z,33.20
2019-05-11T10:59:42.380Z,33.20
2019-05-11T11:02:12.920Z,33.10
2019-05-11T11:04:43.186Z,33.10
2019-05-11T11:07:16.243Z,33.10
2019-05-11T11:09:44.926Z,33.00
2019-05-11T11:12:15.301Z,33.00
2019-05-11T11:14:45.649Z,32.90
2019-05-11T11:17:19.181Z,32.80
2019-05-11T11:19:48.858Z,32.70
2019-05-11T11:22:35.835Z,32.70
2019-05-11T11:27:20.686Z,32.50
2019-05-11T11:29:51.143Z,32.40
2019-05-11T11:32:21.561Z,32.40
2019-05-11T11:34:51.947Z,32.30
2019-05-11T11:37:22.393Z,32.20
2019-05-11T11:39:52.744Z,32.20
2019-05-11T11:42:23.031Z,32.10
2019-05-11T11:44:53.388Z,32.00
2019-05-11T11:47:23.687Z,32.00
2019-05-11T11:49:54.092Z,32.00
2019-05-11T11:52:24.360Z,31.90
2019-05-11T11:54:54.477Z,31.90
2019-05-11T11:57:25.010Z,31.80
2019-05-11T11:59:55.403Z,31.70
2019-05-11T12:02:27.475Z,31.70
2019-05-11T12:04:58.190Z,31.70
2019-05-11T12:07:28.708Z,31.70
2019-05-11T12:09:59.143Z,31.60
2019-05-11T12:12:29.419Z,31.60
2019-05-11T12:14:59.944Z,31.50
2019-05-11T12:17:30.306Z,31.50
2019-05-11T12:20:00.651Z,31.40
2019-05-11T12:22:30.962Z,31.40
2019-05-11T12:25:01.439Z,31.30
2019-05-11T12:27:31.792Z,31.30
2019-05-11T12:30:01.951Z,31.20
2019-05-11T12:32:33.555Z,31.20
2019-05-11T12:35:04.101Z,31.20
2019-05-11T12:37:34.491Z,31.00
2019-05-11T12:40:08.232Z,31.00
2019-05-11T12:42:38.214Z,31.00
2019-05-11T12:45:09.700Z,31.00
2019-05-11T12:47:40.200Z,31.00
2019-05-11T12:50:11.749Z,30.90
2019-05-11T12:52:42.278Z,30.90
2019-05-11T12:55:14.840Z,30.90
2019-05-11T12:57:45.047Z,30.80
2019-05-11T13:00:17.837Z,30.80
2019-05-11T13:02:48.402Z,30.70
2019-05-11T13:05:20.696Z,30.70
2019-05-11T13:07:51.008Z,30.70
2019-05-11T13:10:21.439Z,30.60
2019-05-11T13:12:51.869Z,30.60
2019-05-11T13:15:22.142Z,30.50
2019-05-11T13:17:52.411Z,30.60
2019-05-11T13:20:22.780Z,30.50
2019-05-11T13:22:52.943Z,30.50
2019-05-11T13:25:23.295Z,30.50
2019-05-11T13:27:53.429Z,30.50
2019-05-11T13:30:23.752Z,30.40
2019-05-11T13:32:54.459Z,30.40
2019-05-11T13:35:24.809Z,30.30
2019-05-11T13:37:54.991Z,30.30
2019-05-11T13:40:27.585Z,30.30
2019-05-11T13:42:58.128Z,30.30
2019-05-11T13:45:28.663Z,30.30
2019-05-11T13:47:59.443Z,30.30
2019-05-11T13:50:29.996Z,30.20
2019-05-11T13:53:00.286Z,30.20
2019-05-11T13:55:30.655Z,30.20
2019-05-11T13:58:01.056Z,30.20
2019-05-11T14:00:31.201Z,30.20
2019-05-11T14:03:03.400Z,30.20
2019-05-11T14:05:33.901Z,30.20
2019-05-11T14:08:04.166Z,30.20
2019-05-11T14:10:34.284Z,30.20
2019-05-11T14:13:04.656Z,30.20
2019-05-11T14:15:34.973Z,30.20
2019-05-11T14:18:08.694Z,30.20
2019-05-11T14:20:37.873Z,30.20
2019-05-11T14:23:08.349Z,30.20
2019-05-11T14:25:38.759Z,30.20
2019-05-11T14:28:09.141Z,30.20
2019-05-11T14:30:39.686Z,30.10
2019-05-11T14:33:10.137Z,30.10
2019-05-11T14:35:40.423Z,30.10
2019-05-11T14:38:10.859Z,30.10
2019-05-11T14:40:41.057Z,30.10
2019-05-11T14:43:11.306Z,30.10
2019-05-11T14:45:41.610Z,30.10
2019-05-11T14:48:23.110Z,30.10
2019-05-11T14:50:43.426Z,30.00
2019-05-11T14:53:13.951Z,30.00
2019-05-11T14:55:44.191Z,29.90
2019-05-11T14:58:14.415Z,29.90
2019-05-11T15:00:44.897Z,29.90
2019-05-11T15:03:15.254Z,29.90
2019-05-11T15:05:47.463Z,29.80
2019-05-11T15:08:18.205Z,29.80
2019-05-11T15:10:48.932Z,29.80
2019-05-11T15:13:19.447Z,29.70
2019-05-11T15:15:49.776Z,29.70
2019-05-11T15:18:20.123Z,29.70
2019-05-11T15:20:50.466Z,29.60
2019-05-11T15:23:20.930Z,29.70
2019-05-11T15:25:51.277Z,29.60
2019-05-11T15:28:21.647Z,29.70
2019-05-11T15:30:51.902Z,29.70
2019-05-11T15:33:22.035Z,29.60
2019-05-11T15:35:52.326Z,29.70
2019-05-11T15:38:22.548Z,29.60
2019-05-11T15:40:52.853Z,29.60
2019-05-11T15:43:23.113Z,29.60
2019-05-11T15:45:53.634Z,29.60
2019-05-11T15:48:23.868Z,29.60
2019-05-11T15:50:54.036Z,29.50
2019-05-11T15:53:24.506Z,29.50
2019-05-11T15:55:54.618Z,29.40
2019-05-11T15:58:24.801Z,29.40
2019-05-11T16:00:55.150Z,29.40
2019-05-11T16:03:25.857Z,29.40
2019-05-11T16:05:58.141Z,29.40
2019-05-11T16:08:28.319Z,29.40
2019-05-11T16:10:58.809Z,29.40
2019-05-11T16:13:28.910Z,29.30
2019-05-11T16:15:59.265Z,29.30
2019-05-11T16:18:29.528Z,29.30
2019-05-11T16:20:59.757Z,29.40
2019-05-11T16:23:30.241Z,29.40
2019-05-11T16:26:00.628Z,29.40
2019-05-11T16:28:30.962Z,29.40
2019-05-11T16:31:01.205Z,29.30
2019-05-11T16:33:31.594Z,29.30
2019-05-11T16:36:01.926Z,29.30
2019-05-11T16:38:32.315Z,29.30
2019-05-11T16:41:02.979Z,29.30
2019-05-11T16:43:33.260Z,29.30
2019-05-11T16:46:03.572Z,29.30
2019-05-11T16:48:34.181Z,29.20
2019-05-11T16:51:04.481Z,29.20
2019-05-11T16:53:35.364Z,29.10
2019-05-11T16:56:08.398Z,29.10
2019-05-11T16:58:41.135Z,29.10
2019-05-11T17:01:10.210Z,29.10
2019-05-11T17:03:40.426Z,29.10
2019-05-11T17:06:11.171Z,29.10
2019-05-11T17:08:41.487Z,29.10
2019-05-11T17:11:11.965Z,29.10
2019-05-11T17:13:42.309Z,29.10
2019-05-11T17:16:12.740Z,29.10
2019-05-11T17:18:42.987Z,29.10
2019-05-11T17:21:13.157Z,29.10
2019-05-11T17:23:43.458Z,29.00
2019-05-11T17:26:13.658Z,29.00
2019-05-11T17:28:44.051Z,29.00
2019-05-11T17:31:14.367Z,29.00
2019-05-11T17:33:44.653Z,29.00
2019-05-11T17:36:14.854Z,29.00
2019-05-11T17:38:47.697Z,29.00
2019-05-11T17:41:17.001Z,29.00
2019-05-11T17:43:47.962Z,28.90
2019-05-11T17:46:18.831Z,29.00
2019-05-11T17:48:49.112Z,28.90
2019-05-11T17:51:22.573Z,28.90
2019-05-11T17:53:51.286Z,28.90
2019-05-11T17:56:21.489Z,28.90
2019-05-11T17:58:51.827Z,28.90
2019-05-11T18:01:22.070Z,28.90
2019-05-11T18:03:52.426Z,28.90
2019-05-11T18:06:23.248Z,28.90
2019-05-11T18:08:53.748Z,28.90
2019-05-11T18:11:23.989Z,28.90
2019-05-11T18:13:54.330Z,28.80
2019-05-11T18:16:24.685Z,28.90
2019-05-11T18:18:54.929Z,28.90
2019-05-11T18:21:25.420Z,28.80
2019-05-11T18:23:55.919Z,28.80
2019-05-11T18:26:28.445Z,28.80
2019-05-11T18:28:58.620Z,28.80
2019-05-11T18:31:28.967Z,28.80
2019-05-11T18:33:59.127Z,28.70
2019-05-11T18:36:29.590Z,28.70
2019-05-11T18:38:59.929Z,28.70
2019-05-11T18:41:30.050Z,28.70
2019-05-11T18:44:00.287Z,28.70
2019-05-11T18:46:30.606Z,28.70
2019-05-11T18:49:00.794Z,28.60
2019-05-11T18:51:31.071Z,28.60
2019-05-11T18:54:01.410Z,28.60
2019-05-11T18:56:31.740Z,28.60
2019-05-11T18:59:01.842Z,28.60
2019-05-11T19:01:32.316Z,28.60
2019-05-11T19:04:02.624Z,28.60
2019-05-11T19:06:32.765Z,28.60
2019-05-11T19:09:03.342Z,28.50
2019-05-11T19:11:34.343Z,28.50
2019-05-11T19:14:05.048Z,28.50
2019-05-11T19:16:35.482Z,28.60
2019-05-11T19:19:07.942Z,28.50
2019-05-11T19:21:37.322Z,28.50
2019-05-11T19:24:09.319Z,28.40
2019-05-11T19:26:39.457Z,28.40
2019-05-11T19:29:09.661Z,28.40
2019-05-11T19:31:39.897Z,28.40
2019-05-11T19:34:10.313Z,28.40
2019-05-11T19:36:40.628Z,28.40
2019-05-11T19:39:10.915Z,28.40
2019-05-11T19:41:41.595Z,28.40
2019-05-11T19:44:11.977Z,28.40
2019-05-11T19:46:42.688Z,28.30
2019-05-11T19:49:13.084Z,28.30
2019-05-11T19:51:43.275Z,28.30
2019-05-11T19:54:13.514Z,28.30
2019-05-11T19:56:43.843Z,28.30
2019-05-11T19:59:14.907Z,28.30
2019-05-11T20:01:45.180Z,28.30
2019-05-11T20:04:15.494Z,28.30
2019-05-11T20:06:47.849Z,28.30
2019-05-11T20:09:19.145Z,28.20
2019-05-11T20:11:48.936Z,28.20
2019-05-11T20:14:19.192Z,28.20
2019-05-11T20:16:49.421Z,28.20
2019-05-11T20:19:19.737Z,28.20
2019-05-11T20:21:50.057Z,28.20
2019-05-11T20:24:20.342Z,28.20
2019-05-11T20:26:50.822Z,28.20
2019-05-11T20:29:21.098Z,28.20
2019-05-11T20:31:54.315Z,28.20
2019-05-11T20:34:24.973Z,28.10
2019-05-11T20:36:55.122Z,28.10
2019-05-11T20:39:25.512Z,28.20
2019-05-11T20:41:58.079Z,28.20
2019-05-11T20:44:28.693Z,28.10
2019-05-11T20:46:59.553Z,28.20
2019-05-11T20:49:29.885Z,28.10
2019-05-11T20:52:01.330Z,28.10
2019-05-11T20:54:31.625Z,28.10
2019-05-11T20:57:02.043Z,28.10
2019-05-11T20:59:32.335Z,28.00
2019-05-11T21:02:02.614Z,28.00
2019-05-11T21:04:32.825Z,28.00
2019-05-11T21:07:03.132Z,28.00
2019-05-11T21:09:33.403Z,28.00
2019-05-11T21:12:03.612Z,28.00
2019-05-11T21:14:33.913Z,27.90
2019-05-11T21:17:04.255Z,27.90
2019-05-11T21:19:34.673Z,27.90
2019-05-11T21:22:04.928Z,27.90
2019-05-11T21:24:35.165Z,27.90
2019-05-11T21:27:05.384Z,27.80
2019-05-11T21:29:38.568Z,27.80
2019-05-11T21:32:08.049Z,27.80
2019-05-11T21:34:38.499Z,27.80
2019-05-11T21:37:08.715Z,27.80
2019-05-11T21:39:38.816Z,27.70
2019-05-11T21:42:09.215Z,27.70
2019-05-11T21:44:39.480Z,27.70
2019-05-11T21:47:09.623Z,27.70
2019-05-11T21:49:40.189Z,27.70
2019-05-11T21:52:10.500Z,27.70
2019-05-11T21:54:40.666Z,27.60
2019-05-11T21:57:10.924Z,27.60
2019-05-11T21:59:41.277Z,27.70
2019-05-11T22:02:11.678Z,27.70
2019-05-11T22:04:42.102Z,27.70
2019-05-11T22:07:12.385Z,27.60
2019-05-11T22:09:42.804Z,27.60
2019-05-11T22:12:13.011Z,27.60
2019-05-11T22:14:43.337Z,27.60
2019-05-11T22:17:13.705Z,27.60
2019-05-11T22:19:43.892Z,27.70
2019-05-11T22:22:22.419Z,27.70
2019-05-11T22:24:47.707Z,27.70
2019-05-11T22:27:18.539Z,27.70
2019-05-11T22:29:49.092Z,27.70
2019-05-11T22:32:19.478Z,27.70
2019-05-11T22:34:49.846Z,27.70
2019-05-11T22:37:20.133Z,27.70
2019-05-11T22:39:50.404Z,27.60
2019-05-11T22:42:21.004Z,27.60
2019-05-11T22:44:51.243Z,27.60
2019-05-11T22:47:21.543Z,27.60
2019-05-11T22:49:51.815Z,27.60
2019-05-11T22:52:33.008Z,27.60
2019-05-11T22:54:54.202Z,27.60
2019-05-11T22:57:24.540Z,27.60
2019-05-11T22:59:54.629Z,27.60
2019-05-11T23:02:24.909Z,27.60
2019-05-11T23:04:57.782Z,27.60
2019-05-11T23:07:28.640Z,27.60
2019-05-11T23:10:00.616Z,27.60
2019-05-11T23:12:31.031Z,27.60
2019-05-11T23:15:02.695Z,27.60
2019-05-11T23:17:33.014Z,27.60
2019-05-11T23:20:03.514Z,27.60
2019-05-11T23:22:47.709Z,27.60
2019-05-11T23:25:08.069Z,27.60
2019-05-11T23:27:39.278Z,27.60
2019-05-11T23:30:09.959Z,27.60
2019-05-11T23:32:40.303Z,27.70
2019-05-11T23:35:10.908Z,27.70
2019-05-11T23:37:42.668Z,27.70
2019-05-11T23:40:13.551Z,27.70
2019-05-11T23:42:43.942Z,27.70
2019-05-11T23:45:14.470Z,27.70
2019-05-11T23:47:44.795Z,27.70
2019-05-11T23:50:15.583Z,27.70
2019-05-11T23:52:48.511Z,27.70
2019-05-11T23:55:18.983Z,27.70
2019-05-11T23:57:49.456Z,27.80
